Pagrindinis puslapis
METAR-TAF:

METAR-TAF

Oro uostai :

Olesiundas, Norvegija

platuma: 62-34N, ilguma: 006-07E, Aukštis: 2 m

Dabartinis oras

Ataskaita buvo paskelbta 31 minutes, ne 17:20 UTC
Vėjas 8 kt iš Pietų/Pietvakarių, svyruoja nuo Pietų ir Vakarų/Pietvakarių
Temperatūra 14°C
Drėgmė 67%
Slėgis 1000 hPa
Matomumas 10 km arba daugiau
Su prošvaistėmis ne aukštis 5300 ft

METAR: ENAL 231720Z 20008KT 170V240 9999 BKN053 14/08 Q1000

Laikas: 19:51 (17:51 UTC)

Prognozė

Ataskaita buvo paskelbta 3 valandos ir 51 minutes, ne 14:00 UTC
Prognozė galioja nuo 23 metu 15 UTC su 23 metu 21 UTC
Vėjas 8 kt iš Pietų/Pietryčių
Matomumas 10 km arba daugiau
Mažai debesys ne aukštis 2000 ft
Su prošvaistėmis ne aukštis 4000 ft

TAF: ENAL 231400Z 2315/2321 16008KT 9999 FEW020 BKN040

Orai ataskaitas ir orų prognozės (METAR, TAF).

turimą stotys yra geltonos ir raudonos taškus žemėlapyje.

Perkelti pele per norėdami pamatyti stoties vardą.

Tada spustelėkite, norėdami matyti oro stebėjimo ir prognozės.

Norėdami pakeisti žemėlapį: spustelėkite ant žalios mygtukų su juodo kryžiaus žemyn,; žalią mygtuką su brūkšneliu, jei norite nutolinti; arba žalių rodyklių gretimoms žemėlapius.


METAR-TAF: